createdAt,value
2018-07-15T00:00:41.637Z,2.90
2018-07-15T00:03:11.077Z,3.00
2018-07-15T00:05:40.419Z,2.67
2018-07-15T00:08:09.696Z,2.80
2018-07-15T00:10:46.728Z,3.07
2018-07-15T00:13:16.042Z,3.13
2018-07-15T00:15:45.563Z,3.03
2018-07-15T00:18:14.819Z,2.70
2018-07-15T00:20:44.152Z,3.00
2018-07-15T00:23:13.456Z,2.67
2018-07-15T00:25:42.702Z,3.30
2018-07-15T00:28:12.022Z,2.97
2018-07-15T00:30:41.303Z,3.50
2018-07-15T00:33:10.662Z,3.20
2018-07-15T00:35:39.979Z,3.00
2018-07-15T00:38:09.405Z,3.30
2018-07-15T00:40:38.707Z,3.23
2018-07-15T00:43:08.231Z,3.27
2018-07-15T00:45:37.544Z,3.30
2018-07-15T00:48:06.860Z,3.13
2018-07-15T00:50:36.108Z,3.40
2018-07-15T00:53:05.387Z,3.10
2018-07-15T00:55:34.697Z,3.43
2018-07-15T00:58:04.295Z,3.50
2018-07-15T01:00:39.088Z,3.70
2018-07-15T01:03:08.691Z,3.63
2018-07-15T01:05:38.173Z,3.47
2018-07-15T01:08:07.726Z,4.00
2018-07-15T01:10:37.054Z,3.80
2018-07-15T01:13:06.459Z,3.50
2018-07-15T01:15:35.561Z,3.70
2018-07-15T01:18:04.930Z,3.47
2018-07-15T01:20:34.223Z,3.50
2018-07-15T01:23:03.489Z,3.93
2018-07-15T01:25:32.767Z,3.77
2018-07-15T01:28:02.121Z,3.83
2018-07-15T01:30:31.394Z,3.87
2018-07-15T01:33:00.772Z,3.80
2018-07-15T01:35:30.084Z,3.33
2018-07-15T01:37:59.353Z,3.93
2018-07-15T01:40:28.617Z,3.97
2018-07-15T01:42:57.898Z,3.80
2018-07-15T01:45:27.185Z,3.73
2018-07-15T01:47:56.559Z,3.67
2018-07-15T01:50:25.879Z,4.17
2018-07-15T01:52:55.181Z,3.97
2018-07-15T01:55:24.201Z,4.43
2018-07-15T01:57:53.450Z,4.23
2018-07-15T02:00:22.823Z,4.53
2018-07-15T02:02:56.171Z,4.50
2018-07-15T02:05:25.510Z,4.33
2018-07-15T02:07:54.772Z,4.37
2018-07-15T02:10:24.056Z,4.30
2018-07-15T02:12:53.330Z,5.10
2018-07-15T02:15:22.649Z,4.33
2018-07-15T02:17:52.114Z,4.27
2018-07-15T02:20:21.433Z,4.27
2018-07-15T02:22:50.869Z,4.40
2018-07-15T02:25:20.136Z,4.57
2018-07-15T02:27:49.389Z,4.90
2018-07-15T02:30:18.688Z,4.77
2018-07-15T02:32:47.825Z,5.23
2018-07-15T02:35:17.173Z,5.30
2018-07-15T02:37:46.449Z,4.70
2018-07-15T02:40:15.724Z,4.80
2018-07-15T02:42:45.154Z,4.50
2018-07-15T02:45:14.548Z,5.07
2018-07-15T02:47:43.808Z,4.93
2018-07-15T02:50:13.203Z,5.23
2018-07-15T02:52:42.355Z,4.87
2018-07-15T02:55:11.634Z,4.70
2018-07-15T02:57:40.907Z,4.87
2018-07-15T03:00:10.209Z,5.00
2018-07-15T03:02:39.569Z,4.50
2018-07-15T03:05:08.813Z,5.30
2018-07-15T03:07:38.086Z,4.97
2018-07-15T03:10:07.149Z,5.37
2018-07-15T03:12:36.420Z,5.17
2018-07-15T03:15:05.713Z,5.10
2018-07-15T03:17:34.998Z,4.83
2018-07-15T03:20:04.269Z,5.43
2018-07-15T03:22:33.555Z,5.43
2018-07-15T03:25:02.828Z,5.10
2018-07-15T03:27:32.100Z,5.27
2018-07-15T03:30:01.353Z,5.03
2018-07-15T03:32:30.633Z,5.53
2018-07-15T03:34:59.900Z,5.33
2018-07-15T03:37:29.258Z,5.37
2018-07-15T03:39:58.607Z,5.10
2018-07-15T03:42:27.848Z,6.17
2018-07-15T03:44:57.202Z,5.17
2018-07-15T03:47:26.503Z,5.40
2018-07-15T03:49:55.833Z,5.93
2018-07-15T03:52:25.160Z,5.57
2018-07-15T03:54:54.507Z,5.23
2018-07-15T03:57:23.848Z,5.73
2018-07-15T03:59:52.881Z,5.50
2018-07-15T04:02:22.179Z,5.70
2018-07-15T04:04:51.236Z,5.63
2018-07-15T04:07:20.585Z,5.70
2018-07-15T04:09:49.837Z,6.37
2018-07-15T04:12:19.251Z,5.70
2018-07-15T04:14:48.384Z,6.10
2018-07-15T04:17:17.646Z,6.03
2018-07-15T04:19:46.912Z,6.30
2018-07-15T04:22:16.180Z,5.93
2018-07-15T04:24:45.484Z,6.00
2018-07-15T04:27:14.631Z,6.07
2018-07-15T04:29:43.979Z,6.50
2018-07-15T04:32:13.279Z,6.67
2018-07-15T04:34:43.698Z,6.07
2018-07-15T04:37:12.981Z,6.30
2018-07-15T04:39:42.275Z,5.90
2018-07-15T04:42:11.570Z,6.17
2018-07-15T04:44:40.882Z,6.00
2018-07-15T04:47:10.268Z,6.37
2018-07-15T04:49:39.638Z,6.30
2018-07-15T04:52:09.023Z,5.73
2018-07-15T04:54:38.403Z,6.20
2018-07-15T04:57:07.834Z,6.27
2018-07-15T04:59:37.258Z,6.10
2018-07-15T05:02:06.626Z,5.90
2018-07-15T05:04:35.928Z,5.80
2018-07-15T05:07:05.469Z,6.17
2018-07-15T05:09:34.806Z,8.13
2018-07-15T05:12:04.047Z,6.10
2018-07-15T05:14:33.367Z,5.70
2018-07-15T05:17:02.637Z,5.83
2018-07-15T05:19:31.909Z,6.60
2018-07-15T05:22:01.288Z,5.23
2018-07-15T05:24:30.565Z,5.70
2018-07-15T05:26:59.985Z,6.20
2018-07-15T05:29:29.558Z,6.20
2018-07-15T05:31:58.871Z,6.20
2018-07-15T05:34:28.272Z,5.63
2018-07-15T05:36:57.694Z,7.17
2018-07-15T05:39:27.026Z,6.20
2018-07-15T05:41:56.317Z,5.77
2018-07-15T05:44:25.667Z,6.00
2018-07-15T05:46:54.970Z,5.53
2018-07-15T05:49:24.260Z,6.03
2018-07-15T05:51:53.540Z,5.73
2018-07-15T05:54:22.895Z,6.10
2018-07-15T05:56:52.171Z,5.70
2018-07-15T05:59:21.502Z,5.50
2018-07-15T06:01:50.789Z,5.87
2018-07-15T06:04:20.152Z,6.03
2018-07-15T06:06:49.403Z,5.87
2018-07-15T06:09:18.888Z,6.33
2018-07-15T06:11:47.943Z,6.37
2018-07-15T06:14:17.386Z,5.23
2018-07-15T06:16:46.728Z,5.60
2018-07-15T06:19:16.013Z,5.70
2018-07-15T06:21:45.320Z,4.63
2018-07-15T06:24:14.674Z,4.70
2018-07-15T06:26:44.060Z,5.00
2018-07-15T06:29:13.524Z,5.70
2018-07-15T06:31:42.995Z,5.17
2018-07-15T06:34:12.333Z,5.30
2018-07-15T06:36:41.726Z,5.40
2018-07-15T06:39:11.077Z,5.57
2018-07-15T06:41:40.422Z,4.60
2018-07-15T06:44:09.807Z,5.50
2018-07-15T06:46:39.206Z,5.30
2018-07-15T06:49:08.611Z,5.20
2018-07-15T06:51:37.930Z,4.90
2018-07-15T06:54:07.169Z,4.77
2018-07-15T06:56:36.541Z,4.10
2018-07-15T06:59:06.049Z,4.67
2018-07-15T07:01:35.475Z,4.73
2018-07-15T07:04:04.914Z,4.30
2018-07-15T07:06:34.253Z,4.67
2018-07-15T07:09:05.098Z,4.83
2018-07-15T07:11:34.853Z,4.90
2018-07-15T07:14:04.452Z,4.93
2018-07-15T07:16:33.961Z,4.03
2018-07-15T07:19:03.511Z,5.50
2018-07-15T07:21:32.949Z,4.37
2018-07-15T07:24:02.369Z,3.90
2018-07-15T07:26:31.739Z,3.37
2018-07-15T07:29:01.104Z,3.70
2018-07-15T07:31:30.379Z,3.23
2018-07-15T07:33:59.782Z,2.97
2018-07-15T07:36:29.095Z,2.90
2018-07-15T07:38:58.469Z,2.77
2018-07-15T07:41:27.829Z,2.50
2018-07-15T07:43:56.938Z,2.40
2018-07-15T07:46:26.230Z,2.43
2018-07-15T07:48:55.594Z,2.80
2018-07-15T07:51:24.886Z,2.60
2018-07-15T07:53:54.297Z,2.50
2018-07-15T07:56:23.725Z,2.60
2018-07-15T07:58:53.047Z,2.57
2018-07-15T08:01:22.295Z,2.40
2018-07-15T08:03:51.567Z,2.00
2018-07-15T08:06:20.879Z,2.10
2018-07-15T08:08:50.144Z,2.27
2018-07-15T08:11:19.882Z,1.90
2018-07-15T08:13:49.819Z,2.10
2018-07-15T08:16:19.134Z,2.00
2018-07-15T08:18:49.468Z,2.07
2018-07-15T08:21:19.324Z,2.80
2018-07-15T08:23:48.679Z,2.43
2018-07-15T08:26:17.982Z,2.10
2018-07-15T08:28:47.664Z,1.60
2018-07-15T08:31:18.830Z,1.80
2018-07-15T08:33:48.513Z,1.90
2018-07-15T08:36:18.173Z,1.93
2018-07-15T08:38:47.591Z,1.83
2018-07-15T08:41:17.188Z,1.80
2018-07-15T08:43:47.193Z,1.97
2018-07-15T08:46:16.463Z,1.57
2018-07-15T08:48:45.875Z,1.97
2018-07-15T08:51:14.948Z,2.10
2018-07-15T08:53:44.299Z,2.00
2018-07-15T08:56:13.601Z,1.83
2018-07-15T08:58:43.117Z,1.40
2018-07-15T09:01:12.449Z,1.60
2018-07-15T09:03:42.393Z,2.00
2018-07-15T09:06:12.339Z,1.80
2018-07-15T09:08:41.763Z,1.63
2018-07-15T09:11:11.220Z,1.43
2018-07-15T09:13:40.292Z,1.63
2018-07-15T09:16:09.869Z,2.10
2018-07-15T09:18:39.530Z,1.83
2018-07-15T09:21:09.868Z,1.40
2018-07-15T09:23:39.422Z,1.50
2018-07-15T09:26:08.971Z,1.60
2018-07-15T09:28:38.464Z,1.90
2018-07-15T09:31:07.994Z,2.10
2018-07-15T09:33:37.456Z,1.70
2018-07-15T09:36:06.742Z,1.70
2018-07-15T09:38:36.036Z,1.60
2018-07-15T09:41:05.363Z,1.60
2018-07-15T09:43:34.657Z,1.80
2018-07-15T09:46:04.000Z,1.70
2018-07-15T09:48:33.412Z,1.40
2018-07-15T09:51:02.807Z,1.83
2018-07-15T09:53:32.256Z,1.40
2018-07-15T09:56:01.516Z,1.30
2018-07-15T09:58:30.944Z,1.80
2018-07-15T10:01:00.392Z,1.97
2018-07-15T10:03:29.816Z,1.90
2018-07-15T10:05:59.306Z,2.00
2018-07-15T10:08:28.688Z,2.67
2018-07-15T10:10:57.986Z,2.17
2018-07-15T10:13:27.266Z,2.07
2018-07-15T10:15:56.594Z,2.30
2018-07-15T10:18:26.005Z,2.20
2018-07-15T10:20:55.303Z,2.40
2018-07-15T10:23:24.657Z,2.10
2018-07-15T10:25:54.048Z,2.30
2018-07-15T10:28:23.362Z,2.53
2018-07-15T10:30:52.658Z,2.10
2018-07-15T10:33:22.022Z,2.67
2018-07-15T10:35:51.266Z,2.20
2018-07-15T10:38:20.720Z,2.07
2018-07-15T10:40:49.971Z,2.10
2018-07-15T10:43:19.249Z,2.23
2018-07-15T10:45:48.502Z,2.20
2018-07-15T10:48:17.823Z,2.30
2018-07-15T10:50:47.110Z,1.90
2018-07-15T10:53:16.447Z,2.30
2018-07-15T10:55:45.764Z,2.20
2018-07-15T10:58:15.223Z,2.07
2018-07-15T11:00:44.986Z,2.40
2018-07-15T11:03:14.593Z,2.10
2018-07-15T11:05:44.122Z,2.13
2018-07-15T11:08:13.720Z,2.00
2018-07-15T11:10:43.089Z,2.17
2018-07-15T11:13:12.658Z,2.47
2018-07-15T11:15:42.292Z,2.30
2018-07-15T11:18:11.784Z,1.97
2018-07-15T11:20:41.205Z,2.27
2018-07-15T11:23:10.640Z,2.33
2018-07-15T11:25:40.166Z,2.00
2018-07-15T11:28:09.679Z,2.10
2018-07-15T11:30:38.785Z,1.83
2018-07-15T11:33:08.123Z,2.10
2018-07-15T11:35:37.753Z,1.80
2018-07-15T11:38:07.163Z,1.67
2018-07-15T11:40:36.534Z,2.17
2018-07-15T11:43:05.803Z,1.90
2018-07-15T11:45:35.093Z,2.00
2018-07-15T11:48:04.421Z,2.17
2018-07-15T11:50:33.712Z,1.93
2018-07-15T11:53:02.992Z,2.00
2018-07-15T11:55:32.325Z,2.00
2018-07-15T11:58:01.623Z,1.90
2018-07-15T12:00:30.856Z,2.00
2018-07-15T12:03:00.123Z,2.00
2018-07-15T12:05:29.634Z,2.00
2018-07-15T12:07:59.018Z,2.10
2018-07-15T12:10:28.281Z,2.00
2018-07-15T12:12:57.565Z,2.03
2018-07-15T12:15:26.823Z,1.90
2018-07-15T12:17:56.162Z,2.33
2018-07-15T12:20:25.549Z,2.10
2018-07-15T12:22:54.760Z,2.00
2018-07-15T12:25:24.063Z,2.07
2018-07-15T12:27:53.384Z,2.00
2018-07-15T12:30:22.821Z,1.77
2018-07-15T12:32:52.089Z,1.63
2018-07-15T12:35:21.530Z,1.80
2018-07-15T12:37:50.791Z,2.20
2018-07-15T12:40:20.077Z,2.13
2018-07-15T12:42:49.629Z,2.20
2018-07-15T12:45:18.937Z,1.90
2018-07-15T12:47:48.437Z,1.77
2018-07-15T12:50:17.709Z,1.80
2018-07-15T12:52:51.529Z,2.00
2018-07-15T12:55:21.008Z,2.13
2018-07-15T12:57:53.875Z,1.53
2018-07-15T13:00:25.411Z,1.90
2018-07-15T13:02:54.763Z,2.20
2018-07-15T13:05:26.390Z,1.93
2018-07-15T13:07:56.393Z,1.87
2018-07-15T13:10:31.263Z,1.70
2018-07-15T13:13:01.645Z,1.90
2018-07-15T13:15:33.252Z,1.90
2018-07-15T13:18:06.638Z,1.70
2018-07-15T13:20:36.909Z,1.60
2018-07-15T13:23:06.287Z,1.80
2018-07-15T13:25:41.226Z,1.70
2018-07-15T13:28:13.461Z,1.63
2018-07-15T13:30:43.594Z,1.80
2018-07-15T13:33:13.233Z,1.77
2018-07-15T13:35:46.705Z,1.50
2018-07-15T13:38:19.132Z,2.00
2018-07-15T13:40:50.445Z,1.80
2018-07-15T13:43:20.085Z,1.60
2018-07-15T13:45:50.707Z,1.70
2018-07-15T13:48:27.169Z,1.87
2018-07-15T13:50:56.995Z,1.80
2018-07-15T13:53:27.468Z,1.50
2018-07-15T13:55:57.181Z,1.50
2018-07-15T13:58:30.060Z,1.63
2018-07-15T14:01:00.587Z,1.97
2018-07-15T14:03:33.009Z,1.73
2018-07-15T14:06:03.351Z,1.50
2018-07-15T14:08:32.889Z,1.50
2018-07-15T14:11:02.813Z,1.67
2018-07-15T14:13:34.486Z,1.50
2018-07-15T14:16:03.886Z,1.60
2018-07-15T14:18:36.311Z,1.60
2018-07-15T14:21:07.464Z,1.70
2018-07-15T14:23:38.124Z,1.80
2018-07-15T14:26:12.941Z,2.03
2018-07-15T14:28:42.354Z,2.10
2018-07-15T14:31:11.896Z,2.77
2018-07-15T14:33:46.724Z,1.50
2018-07-15T14:36:16.477Z,1.60
2018-07-15T14:38:54.420Z,1.40
2018-07-15T14:41:27.557Z,1.40
2018-07-15T14:43:57.347Z,1.37
2018-07-15T14:46:27.970Z,1.43
2018-07-15T14:48:57.925Z,1.40
2018-07-15T14:51:27.669Z,1.43
2018-07-15T14:54:01.947Z,1.93
2018-07-15T14:56:31.826Z,1.27
2018-07-15T14:59:01.422Z,1.30
2018-07-15T15:01:30.769Z,1.37
2018-07-15T15:04:00.035Z,1.70
2018-07-15T15:06:29.980Z,1.60
2018-07-15T15:09:02.536Z,1.20
2018-07-15T15:11:31.950Z,1.23
2018-07-15T15:14:03.114Z,1.57
2018-07-15T15:16:32.473Z,1.40
2018-07-15T15:19:03.118Z,1.60
2018-07-15T15:21:33.241Z,1.70
2018-07-15T15:24:06.884Z,1.63
2018-07-15T15:26:38.190Z,1.27
2018-07-15T15:29:08.986Z,1.30
2018-07-15T15:31:39.678Z,1.43
2018-07-15T15:34:10.027Z,1.50
2018-07-15T15:36:39.644Z,1.30
2018-07-15T15:39:09.052Z,1.70
2018-07-15T15:41:38.347Z,1.60
2018-07-15T15:44:07.624Z,1.60
2018-07-15T15:46:36.933Z,1.30
2018-07-15T15:49:06.248Z,1.30
2018-07-15T15:51:35.625Z,1.33
2018-07-15T15:54:05.043Z,1.40
2018-07-15T15:56:34.353Z,1.57
2018-07-15T15:59:03.773Z,1.83
2018-07-15T16:01:33.095Z,1.17
2018-07-15T16:04:02.516Z,2.20
2018-07-15T16:06:31.841Z,2.27
2018-07-15T16:09:01.153Z,1.53
2018-07-15T16:11:30.550Z,1.40
2018-07-15T16:13:59.863Z,1.37
2018-07-15T16:16:29.173Z,1.10
2018-07-15T16:18:58.493Z,1.20
2018-07-15T16:21:27.615Z,1.53
2018-07-15T16:23:57.026Z,1.30
2018-07-15T16:26:26.315Z,1.23
2018-07-15T16:28:55.570Z,1.20
2018-07-15T16:31:24.859Z,1.43
2018-07-15T16:33:54.252Z,1.30
2018-07-15T16:36:23.530Z,1.80
2018-07-15T16:38:52.904Z,1.43
2018-07-15T16:41:22.246Z,1.27
2018-07-15T16:43:51.515Z,0.93
2018-07-15T16:46:20.853Z,3.10
2018-07-15T16:48:50.207Z,1.80
2018-07-15T16:51:19.453Z,1.50
2018-07-15T16:53:48.511Z,1.00
2018-07-15T16:56:17.885Z,0.90
2018-07-15T16:58:47.112Z,0.93
2018-07-15T17:01:16.369Z,1.07
2018-07-15T17:03:45.849Z,1.10
2018-07-15T17:06:15.211Z,1.10
2018-07-15T17:08:44.478Z,1.10
2018-07-15T17:11:13.899Z,1.30
2018-07-15T17:13:43.194Z,1.80
2018-07-15T17:16:12.524Z,1.40
2018-07-15T17:18:42.125Z,1.00
2018-07-15T17:21:11.477Z,1.27
2018-07-15T17:23:40.890Z,1.20
2018-07-15T17:26:10.301Z,1.00
2018-07-15T17:28:39.608Z,1.30
2018-07-15T17:31:08.936Z,0.90
2018-07-15T17:33:38.220Z,1.07
2018-07-15T17:36:07.564Z,1.10
2018-07-15T17:38:36.882Z,1.10
2018-07-15T17:41:06.302Z,1.17
2018-07-15T17:43:35.609Z,1.10
2018-07-15T17:46:04.952Z,1.20
2018-07-15T17:48:34.239Z,0.83
2018-07-15T17:51:03.517Z,1.63
2018-07-15T17:53:32.822Z,1.30
2018-07-15T17:56:02.153Z,1.20
2018-07-15T17:58:31.625Z,1.10
2018-07-15T18:01:00.817Z,1.10
2018-07-15T18:03:30.161Z,1.10
2018-07-15T18:05:59.622Z,1.00
2018-07-15T18:08:28.627Z,1.20
2018-07-15T18:10:57.967Z,0.90
2018-07-15T18:13:27.383Z,1.30
2018-07-15T18:15:56.639Z,1.00
2018-07-15T18:18:25.915Z,1.10
2018-07-15T18:20:55.325Z,1.10
2018-07-15T18:23:24.590Z,1.50
2018-07-15T18:25:53.971Z,1.00
2018-07-15T18:28:23.494Z,1.47
2018-07-15T18:30:52.761Z,1.60
2018-07-15T18:33:22.073Z,1.07
2018-07-15T18:35:51.422Z,1.70
2018-07-15T18:38:20.843Z,1.30
2018-07-15T18:40:50.143Z,1.30
2018-07-15T18:43:19.552Z,1.03
2018-07-15T18:45:48.949Z,1.30
2018-07-15T18:48:18.927Z,1.07
2018-07-15T18:50:48.265Z,0.90
2018-07-15T18:53:17.883Z,1.23
2018-07-15T18:55:47.426Z,1.30
2018-07-15T18:58:16.945Z,1.00
2018-07-15T19:00:46.773Z,1.50
2018-07-15T19:03:16.350Z,1.50
2018-07-15T19:05:45.859Z,1.63
2018-07-15T19:08:15.277Z,1.17
2018-07-15T19:10:44.947Z,1.20
2018-07-15T19:13:14.568Z,1.10
2018-07-15T19:15:44.111Z,1.00
2018-07-15T19:18:13.242Z,1.10
2018-07-15T19:20:42.843Z,1.10
2018-07-15T19:23:12.485Z,1.20
2018-07-15T19:25:42.322Z,1.00
2018-07-15T19:28:11.985Z,1.37
2018-07-15T19:30:41.976Z,1.20
2018-07-15T19:33:11.672Z,1.23
2018-07-15T19:35:41.321Z,1.40
2018-07-15T19:38:11.557Z,1.20
2018-07-15T19:40:41.112Z,1.20
2018-07-15T19:43:10.679Z,1.23
2018-07-15T19:45:40.280Z,1.33
2018-07-15T19:48:09.640Z,1.30
2018-07-15T19:50:39.072Z,1.10
2018-07-15T19:53:08.472Z,1.10
2018-07-15T19:55:37.800Z,1.20
2018-07-15T19:58:07.183Z,1.40
2018-07-15T20:00:36.608Z,1.23
2018-07-15T20:03:05.901Z,1.33
2018-07-15T20:05:35.192Z,1.17
2018-07-15T20:08:04.542Z,1.30
2018-07-15T20:10:34.069Z,1.90
2018-07-15T20:13:03.358Z,1.67
2018-07-15T20:15:32.428Z,1.40
2018-07-15T20:18:01.777Z,1.20
2018-07-15T20:20:31.029Z,1.20
2018-07-15T20:23:00.452Z,1.30
2018-07-15T20:25:29.961Z,1.30
2018-07-15T20:27:59.930Z,1.10
2018-07-15T20:30:29.187Z,1.40
2018-07-15T20:32:58.451Z,1.30
2018-07-15T20:35:27.747Z,1.40
2018-07-15T20:37:57.295Z,1.23
2018-07-15T20:40:26.649Z,1.23
2018-07-15T20:42:55.979Z,1.53
2018-07-15T20:45:25.464Z,1.03
2018-07-15T20:47:54.781Z,1.27
2018-07-15T20:50:24.245Z,1.20
2018-07-15T20:52:54.005Z,1.30
2018-07-15T20:55:23.309Z,1.60
2018-07-15T20:57:52.665Z,1.50
2018-07-15T21:00:21.974Z,1.13
2018-07-15T21:02:51.314Z,1.00
2018-07-15T21:05:20.631Z,1.60
2018-07-15T21:07:50.051Z,1.33
2018-07-15T21:10:19.427Z,1.23
2018-07-15T21:12:48.685Z,1.40
2018-07-15T21:15:18.445Z,1.70
2018-07-15T21:17:47.921Z,1.50
2018-07-15T21:20:17.557Z,1.03
2018-07-15T21:22:46.865Z,1.27
2018-07-15T21:25:16.183Z,1.80
2018-07-15T21:27:45.512Z,1.40
2018-07-15T21:30:15.009Z,1.20
2018-07-15T21:32:44.340Z,1.20
2018-07-15T21:35:13.866Z,1.30
2018-07-15T21:37:43.630Z,1.50
2018-07-15T21:40:12.943Z,1.20
2018-07-15T21:42:42.685Z,1.40
2018-07-15T21:45:12.129Z,1.40
2018-07-15T21:47:41.945Z,1.33
2018-07-15T21:50:11.295Z,1.43
2018-07-15T21:52:41.097Z,1.00
2018-07-15T21:55:10.524Z,1.40
2018-07-15T21:57:40.486Z,1.20
2018-07-15T22:00:10.188Z,1.40
2018-07-15T22:02:39.547Z,1.53
2018-07-15T22:05:08.819Z,1.23
2018-07-15T22:07:55.417Z,1.30
2018-07-15T22:10:36.981Z,1.50
2018-07-15T22:13:06.226Z,1.67
2018-07-15T22:15:35.535Z,1.67
2018-07-15T22:18:04.861Z,1.73
2018-07-15T22:20:34.295Z,1.43
2018-07-15T22:23:03.552Z,1.40
2018-07-15T22:25:32.917Z,1.33
2018-07-15T22:28:02.734Z,1.60
2018-07-15T22:30:32.125Z,1.40
2018-07-15T22:33:01.634Z,1.20
2018-07-15T22:35:31.085Z,1.67
2018-07-15T22:38:00.455Z,1.33
2018-07-15T22:40:29.857Z,1.57
2018-07-15T22:42:59.363Z,1.50
2018-07-15T22:45:29.681Z,1.60
2018-07-15T22:47:59.301Z,1.33
2018-07-15T22:50:28.619Z,1.40
2018-07-15T22:52:57.898Z,1.20
2018-07-15T22:55:27.217Z,1.60
2018-07-15T22:57:56.621Z,1.30
2018-07-15T23:00:25.888Z,1.40
2018-07-15T23:02:55.181Z,1.33
2018-07-15T23:05:40.800Z,1.30
2018-07-15T23:08:10.410Z,1.40
2018-07-15T23:10:39.510Z,1.30
2018-07-15T23:13:09.758Z,1.37
2018-07-15T23:15:39.579Z,1.37
2018-07-15T23:18:09.006Z,1.40
2018-07-15T23:20:39.188Z,1.40
2018-07-15T23:23:09.286Z,1.30
2018-07-15T23:25:39.090Z,1.70
2018-07-15T23:28:10.251Z,1.30
2018-07-15T23:30:40.362Z,1.27
2018-07-15T23:33:10.241Z,1.53
2018-07-15T23:35:39.633Z,1.40
2018-07-15T23:38:09.473Z,1.30
2018-07-15T23:40:38.806Z,1.50
2018-07-15T23:43:08.215Z,1.40
2018-07-15T23:45:37.600Z,1.57
2018-07-15T23:48:06.991Z,1.30
2018-07-15T23:50:36.303Z,1.43
2018-07-15T23:53:05.618Z,1.60
2018-07-15T23:55:35.049Z,1.47
2018-07-15T23:58:04.414Z,1.60
